Time;durP1;ratioP1;P1;durP2;ratioP2;P2;SDS_P1;SDS_P2;PMS_P1;PMS_P2;Temp;Humidity;BMP_temperature;BMP_pressure;BME280_temperature;BME280_humidity;BME280_pressure;Samples;Min_cycle;Max_cycle;Signal;HPM_P1;HPM_P2
2023/06/12 00:00:43;;;;;;;6.33;5.60;;;;;;;21.38;61.99;97931.47;4198827;28;21027;-85
2023/06/12 00:02:46;;;;;;;5.87;5.27;;;;;;;21.37;61.32;97932.44;4195891;28;20689;-86
2023/06/12 00:04:54;;;;;;;6.50;5.20;;;;;;;21.37;62.48;97935.09;4184368;28;21215;-85
2023/06/12 00:06:58;;;;;;;6.97;5.93;;;;;;;21.30;61.23;97935.97;4181427;28;20700;-85
2023/06/12 00:09:03;;;;;;;6.13;5.53;;;;;;;21.27;62.58;97938.16;4196010;28;20628;-85
2023/06/12 00:11:09;;;;;;;7.20;5.67;;;;;;;21.24;63.06;97938.50;4198741;28;20623;-85
2023/06/12 00:13:12;;;;;;;6.10;5.50;;;;;;;21.25;62.68;97940.16;4199713;28;21307;-85
2023/06/12 00:15:16;;;;;;;6.80;6.10;;;;;;;21.21;62.96;97939.66;4185227;28;20650;-85
2023/06/12 00:17:19;;;;;;;7.20;5.40;;;;;;;21.19;63.31;97935.56;4208096;28;20711;-85
2023/06/12 00:19:22;;;;;;;6.47;5.40;;;;;;;21.16;61.79;97927.94;4204319;28;21038;-85
2023/06/12 00:21:25;;;;;;;6.73;6.03;;;;;;;21.13;62.45;97938.91;4199331;28;20649;-85
2023/06/12 00:23:28;;;;;;;6.47;5.27;;;;;;;21.13;62.60;97941.56;4200985;28;20627;-85
2023/06/12 00:25:34;;;;;;;7.77;5.77;;;;;;;21.11;63.84;97941.72;4183387;28;20676;-86
2023/06/12 00:27:37;;;;;;;5.83;5.30;;;;;;;21.09;63.43;97937.59;4198009;28;20740;-85
2023/06/12 00:29:41;;;;;;;6.03;5.43;;;;;;;21.10;62.61;97944.56;4186013;28;20657;-85
2023/06/12 00:31:44;;;;;;;6.33;5.53;;;;;;;21.06;62.56;97933.44;4202256;28;20782;-85
2023/06/12 00:33:47;;;;;;;6.60;5.67;;;;;;;21.06;62.53;97935.28;4185767;28;20647;-85
2023/06/12 00:35:51;;;;;;;6.50;5.90;;;;;;;21.08;62.98;97936.78;4198518;28;20733;-85
2023/06/12 00:37:55;;;;;;;6.20;5.60;;;;;;;21.08;63.90;97935.94;4202925;28;20742;-85
2023/06/12 00:39:58;;;;;;;5.93;5.33;;;;;;;21.11;63.34;97936.44;4204753;28;20804;-85
2023/06/12 00:42:04;;;;;;;6.00;5.40;;;;;;;21.11;63.76;97940.88;4195519;28;20651;-85
2023/06/12 00:44:09;;;;;;;6.57;5.80;;;;;;;21.09;63.90;97938.41;4201118;28;20630;-85
2023/06/12 00:46:13;;;;;;;6.40;5.80;;;;;;;21.06;63.23;97930.78;4200740;28;20647;-85
2023/06/12 00:48:17;;;;;;;5.97;5.37;;;;;;;21.08;63.68;97935.94;4198785;28;20998;-85
2023/06/12 00:50:25;;;;;;;6.00;5.40;;;;;;;21.07;63.54;97937.75;4199254;28;20646;-85
2023/06/12 00:52:34;;;;;;;6.70;5.77;;;;;;;21.05;63.39;97931.81;4203466;28;21492;-85
2023/06/12 00:54:38;;;;;;;7.57;6.33;;;;;;;21.05;64.42;97941.56;4189051;28;20696;-85
2023/06/12 00:56:41;;;;;;;7.13;5.83;;;;;;;21.06;64.36;97940.59;4199066;28;21527;-85
2023/06/12 00:58:46;;;;;;;6.30;5.70;;;;;;;21.06;63.32;97945.88;4190407;28;20637;-85
2023/06/12 01:00:49;;;;;;;7.03;6.33;;;;;;;21.07;64.28;97944.91;4196035;28;20653;-85
2023/06/12 01:02:55;;;;;;;6.80;6.10;;;;;;;21.07;65.00;97947.56;4199349;28;20668;-85
2023/06/12 01:04:59;;;;;;;6.30;5.70;;;;;;;21.05;64.21;97949.53;4201241;28;20625;-85
2023/06/12 01:07:08;;;;;;;7.40;6.47;;;;;;;21.07;63.99;97948.38;4201510;28;21285;-84
2023/06/12 01:09:18;;;;;;;6.33;5.70;;;;;;;21.10;65.26;97957.81;4200471;28;21041;-84
2023/06/12 01:11:23;;;;;;;6.00;5.40;;;;;;;21.08;64.74;97951.84;4203174;28;21164;-85
2023/06/12 01:13:27;;;;;;;6.67;5.97;;;;;;;21.08;64.47;97954.50;4187266;28;20638;-85
2023/06/12 01:15:32;;;;;;;6.77;6.00;;;;;;;21.05;63.96;97949.53;4179120;28;20637;-85
2023/06/12 01:17:35;;;;;;;8.10;7.30;;;;;;;20.87;65.56;97951.63;4200465;28;20681;-85
2023/06/12 01:19:39;;;;;;;7.87;7.03;;;;;;;20.77;65.12;97950.97;4185255;28;21270;-84
2023/06/12 01:21:44;;;;;;;7.57;6.70;;;;;;;20.69;65.85;97953.66;4198424;28;20639;-84
2023/06/12 01:24:02;;;;;;;7.47;6.70;;;;;;;20.59;66.25;97955.63;4185265;28;21079;-85
2023/06/12 01:26:25;;;;;;;8.27;7.03;;;;;;;20.49;66.07;97957.66;4206490;28;20733;-85
2023/06/12 01:28:49;;;;;;;7.00;6.40;;;;;;;20.38;67.28;97954.53;4199834;28;21109;-85
2023/06/12 01:31:08;;;;;;;10.30;6.50;;;;;;;20.30;67.33;97959.00;4184622;28;21102;-85
2023/06/12 01:33:17;;;;;;;6.87;6.13;;;;;;;20.21;67.71;97952.91;4206015;28;20628;-84
2023/06/12 01:35:23;;;;;;;7.27;6.57;;;;;;;20.13;66.62;97944.97;4202840;28;20631;-85
2023/06/12 01:37:32;;;;;;;8.33;6.93;;;;;;;20.05;66.77;97950.25;4203932;28;21309;-85
2023/06/12 01:39:41;;;;;;;8.33;6.97;;;;;;;20.00;66.72;97946.47;4198559;28;20639;-85
2023/06/12 01:41:45;;;;;;;8.33;7.00;;;;;;;19.92;68.81;97951.75;4199233;28;20628;-85
2023/06/12 01:43:49;;;;;;;7.77;6.97;;;;;;;19.84;67.74;97949.06;4189595;28;20688;-85
2023/06/12 01:45:52;;;;;;;8.00;7.20;;;;;;;19.82;68.06;97951.06;4197808;28;20669;-85
2023/06/12 01:47:55;;;;;;;8.80;7.03;;;;;;;19.68;68.34;97953.53;4188578;28;20641;-85
2023/06/12 01:50:03;;;;;;;8.00;7.20;;;;;;;19.59;69.17;97946.56;4199291;28;20637;-84
2023/06/12 01:52:07;;;;;;;8.33;7.17;;;;;;;19.54;69.32;97947.06;4204620;28;20722;-85
2023/06/12 01:54:11;;;;;;;7.67;6.87;;;;;;;19.52;70.06;97953.53;4189956;28;21204;-85
2023/06/12 01:56:17;;;;;;;8.30;7.37;;;;;;;19.46;69.62;97954.16;4188565;28;20636;-85
2023/06/12 01:58:20;;;;;;;9.07;8.17;;;;;;;19.39;69.65;97945.22;4205479;28;20662;-85
2023/06/12 02:00:40;;;;;;;7.53;6.73;;;;;;;19.33;69.93;97939.75;4191310;28;20634;-85
2023/06/12 02:02:45;;;;;;;9.63;7.27;;;;;;;19.30;70.33;97942.72;4185461;28;20710;-85
2023/06/12 02:04:49;;;;;;;7.83;7.03;;;;;;;19.26;71.07;97938.72;4205673;28;20642;-85
2023/06/12 02:06:54;;;;;;;7.93;7.13;;;;;;;19.20;70.73;97934.94;4182235;28;20665;-85
2023/06/12 02:09:00;;;;;;;8.27;7.40;;;;;;;19.17;70.13;97937.91;4188480;28;20635;-85
2023/06/12 02:11:04;;;;;;;8.60;7.47;;;;;;;19.14;71.17;97937.38;4197381;28;20659;-85
2023/06/12 02:13:08;;;;;;;9.17;7.33;;;;;;;19.08;71.37;97941.50;4183614;28;21224;-85
2023/06/12 02:15:12;;;;;;;8.20;7.40;;;;;;;19.05;71.60;97938.38;4196207;28;20632;-85
2023/06/12 02:17:17;;;;;;;9.63;7.47;;;;;;;19.01;71.41;97940.47;4185048;28;20691;-85
2023/06/12 02:19:25;;;;;;;9.00;7.27;;;;;;;19.00;71.54;97941.47;4188948;28;20640;-85
2023/06/12 02:21:28;;;;;;;7.97;7.17;;;;;;;18.97;71.53;97946.22;4189551;28;20625;-85
2023/06/12 02:23:34;;;;;;;8.33;7.40;;;;;;;18.93;72.19;97945.72;4188617;28;20664;-85
2023/06/12 02:25:39;;;;;;;8.07;7.27;;;;;;;18.88;71.45;97941.06;4190185;28;20629;-85
2023/06/12 02:27:42;;;;;;;7.57;6.70;;;;;;;18.80;72.31;97948.97;4198356;28;20624;-85
2023/06/12 02:29:45;;;;;;;7.43;6.63;;;;;;;18.75;72.33;97945.94;4184116;28;20659;-85
2023/06/12 02:31:48;;;;;;;8.13;7.00;;;;;;;18.74;71.84;97945.13;4181999;28;20639;-85
2023/06/12 02:33:52;;;;;;;8.03;7.23;;;;;;;18.67;72.18;97944.13;4182671;28;20723;-84
2023/06/12 02:35:55;;;;;;;8.50;7.63;;;;;;;18.63;72.32;97948.06;4198920;28;20635;-85
2023/06/12 02:37:58;;;;;;;8.57;7.60;;;;;;;18.63;72.45;97956.00;4182854;28;21008;-85
2023/06/12 02:40:03;;;;;;;7.83;6.90;;;;;;;18.61;72.73;97950.03;4186619;28;20649;-85
2023/06/12 02:42:08;;;;;;;9.13;7.10;;;;;;;18.63;72.44;97947.25;4212813;28;20731;-85
2023/06/12 02:44:12;;;;;;;8.60;7.53;;;;;;;18.60;72.74;97945.75;4180618;28;20687;-85
2023/06/12 02:46:15;;;;;;;8.50;7.20;;;;;;;18.59;73.17;97944.06;4185801;28;20703;-85
2023/06/12 02:48:18;;;;;;;7.30;6.60;;;;;;;18.59;72.24;97951.19;4182321;28;20640;-85
2023/06/12 02:50:22;;;;;;;8.87;7.77;;;;;;;18.54;73.07;97951.66;4196652;28;20639;-84
2023/06/12 02:52:33;;;;;;;10.07;7.40;;;;;;;18.56;73.18;97952.31;4178017;28;20655;-84
2023/06/12 02:54:36;;;;;;;8.07;6.67;;;;;;;18.56;72.55;97956.78;4188453;28;20620;-85
2023/06/12 02:56:44;;;;;;;7.90;7.10;;;;;;;18.62;72.43;97941.13;4199789;28;20681;-85
2023/06/12 02:58:48;;;;;;;7.90;6.50;;;;;;;18.63;72.83;97949.88;4198206;28;20694;-84
2023/06/12 03:00:51;;;;;;;8.63;6.57;;;;;;;18.63;72.49;97957.81;4200443;28;20626;-85
2023/06/12 03:02:55;;;;;;;7.67;6.83;;;;;;;18.62;72.67;97949.03;4188639;28;20685;-85
2023/06/12 03:05:00;;;;;;;9.03;7.43;;;;;;;18.62;72.40;97954.31;4188629;28;21231;-85
2023/06/12 03:07:05;;;;;;;8.03;7.23;;;;;;;18.57;72.35;97953.16;4199131;28;21320;-85
2023/06/12 03:09:09;;;;;;;8.77;7.33;;;;;;;18.56;72.74;97951.50;4200754;28;20665;-84
2023/06/12 03:11:13;;;;;;;8.47;7.47;;;;;;;18.52;72.93;97961.56;4200983;28;20662;-85
2023/06/12 03:13:17;;;;;;;8.43;7.23;;;;;;;18.49;73.19;97956.59;4202256;28;20725;-85
2023/06/12 03:15:21;;;;;;;7.73;6.97;;;;;;;18.48;72.60;97957.56;4197439;28;21068;-85
2023/06/12 03:17:25;;;;;;;9.40;7.70;;;;;;;18.46;73.12;97964.81;4194018;28;20660;-84
2023/06/12 03:19:28;;;;;;;7.23;6.53;;;;;;;18.40;73.35;97958.50;4187215;28;20636;-84
2023/06/12 03:21:31;;;;;;;9.17;7.73;;;;;;;18.34;74.24;97961.75;4186147;28;20672;-84
2023/06/12 03:23:34;;;;;;;8.80;7.40;;;;;;;18.29;73.50;97962.22;4182734;28;20771;-84
2023/06/12 03:25:38;;;;;;;8.07;7.07;;;;;;;18.26;73.37;97964.34;4184536;28;20661;-85
2023/06/12 03:27:41;;;;;;;7.30;6.60;;;;;;;18.22;74.43;97966.47;4184109;28;20650;-84
2023/06/12 03:29:46;;;;;;;8.13;7.07;;;;;;;18.17;73.80;97955.53;4187762;28;20657;-84
2023/06/12 03:31:49;;;;;;;8.70;7.90;;;;;;;18.16;74.26;97963.59;4188355;28;20650;-84
2023/06/12 03:33:54;;;;;;;7.93;6.83;;;;;;;18.11;74.58;97961.41;4186096;28;20633;-85
2023/06/12 03:35:57;;;;;;;8.60;7.67;;;;;;;18.09;73.92;97963.38;4188336;28;20653;-84
2023/06/12 03:38:01;;;;;;;9.30;8.07;;;;;;;18.09;74.33;97966.00;4180340;28;20719;-85
2023/06/12 03:40:05;;;;;;;8.43;7.53;;;;;;;18.09;74.86;97967.84;4201304;28;21011;-84
2023/06/12 03:42:12;;;;;;;10.63;7.50;;;;;;;18.12;75.67;97967.53;4203404;28;20639;-84
2023/06/12 03:44:35;;;;;;;9.03;8.03;;;;;;;18.11;74.43;97971.13;4199776;28;20659;-84
2023/06/12 03:46:40;;;;;;;17.13;8.27;;;;;;;18.09;74.73;97971.28;4192838;28;20670;-84
2023/06/12 03:48:43;;;;;;;10.30;7.80;;;;;;;18.12;74.99;97970.97;4181197;28;20741;-85
2023/06/12 03:50:47;;;;;;;8.43;7.60;;;;;;;18.15;74.92;97972.53;4197694;28;20634;-84
2023/06/12 03:52:50;;;;;;;9.60;7.33;;;;;;;18.16;75.02;97985.56;4195536;28;20749;-84
2023/06/12 03:54:54;;;;;;;8.23;7.40;;;;;;;18.16;75.42;97979.44;4185647;28;20995;-84
2023/06/12 03:56:58;;;;;;;8.80;6.77;;;;;;;18.24;75.10;97982.16;4200264;28;21039;-84
2023/06/12 03:59:01;;;;;;;7.40;6.60;;;;;;;18.27;74.68;97990.59;4199109;28;20634;-84
2023/06/12 04:01:04;;;;;;;7.57;6.67;;;;;;;18.33;74.67;97995.28;4196850;28;20681;-84
2023/06/12 04:03:09;;;;;;;8.50;7.40;;;;;;;18.40;75.22;97993.66;4186468;28;20813;-84
2023/06/12 04:05:13;;;;;;;8.17;6.83;;;;;;;18.44;74.89;98002.94;4186944;28;20656;-84
2023/06/12 04:07:16;;;;;;;10.33;8.10;;;;;;;18.47;74.67;98000.78;4197928;28;20710;-84
2023/06/12 04:09:20;;;;;;;8.30;7.40;;;;;;;18.46;75.47;97996.53;4182452;28;20655;-84
2023/06/12 04:11:23;;;;;;;12.43;8.27;;;;;;;18.47;75.05;97997.34;4184292;28;20646;-84
2023/06/12 04:13:26;;;;;;;7.70;6.73;;;;;;;18.50;75.03;98003.13;4196400;28;20630;-84
2023/06/12 04:15:30;;;;;;;8.47;7.43;;;;;;;18.55;75.60;98006.16;4197628;28;20727;-84
2023/06/12 04:17:34;;;;;;;7.60;6.90;;;;;;;18.62;74.14;98015.09;4180632;28;20632;-84
2023/06/12 04:19:40;;;;;;;9.80;7.90;;;;;;;18.63;75.39;98015.94;4180868;28;20616;-84
2023/06/12 04:21:43;;;;;;;8.40;7.57;;;;;;;18.62;75.03;98020.38;4182482;28;20628;-85
2023/06/12 04:23:47;;;;;;;10.80;8.10;;;;;;;18.66;74.99;98021.75;4180228;28;21294;-85
2023/06/12 04:25:51;;;;;;;9.17;7.77;;;;;;;18.69;74.83;98031.19;4191300;28;20619;-84
2023/06/12 04:27:55;;;;;;;8.93;8.03;;;;;;;18.72;75.13;98026.41;4197844;28;20659;-84
2023/06/12 04:29:59;;;;;;;9.83;7.77;;;;;;;18.74;75.06;98024.41;4199827;28;20664;-84
2023/06/12 04:32:05;;;;;;;8.80;7.90;;;;;;;18.74;75.25;98035.00;4184847;28;20629;-85
2023/06/12 04:34:09;;;;;;;11.70;9.60;;;;;;;18.76;74.46;98034.84;4198250;28;20731;-85
2023/06/12 04:36:17;;;;;;;14.03;9.37;;;;;;;18.76;75.02;98040.13;4195910;28;20678;-85
2023/06/12 04:38:23;;;;;;;8.80;7.77;;;;;;;18.78;75.71;98038.13;4179288;28;21964;-85
2023/06/12 04:40:26;;;;;;;9.10;7.60;;;;;;;18.82;75.41;98042.16;4196121;28;20623;-84
2023/06/12 04:42:33;;;;;;;9.23;8.33;;;;;;;18.88;74.85;98044.16;4182727;28;21010;-85
2023/06/12 04:44:37;;;;;;;8.90;7.90;;;;;;;18.92;74.95;98041.03;4200678;28;20664;-83
2023/06/12 04:46:40;;;;;;;9.00;7.83;;;;;;;18.96;74.55;98039.75;4183957;28;21515;-84
2023/06/12 04:48:43;;;;;;;9.27;7.83;;;;;;;18.96;73.92;98040.56;4180768;28;20689;-81
2023/06/12 04:50:48;;;;;;;8.27;7.27;;;;;;;18.95;74.95;98038.09;4197308;28;20654;-82
2023/06/12 04:52:53;;;;;;;10.27;8.60;;;;;;;18.97;74.48;98036.09;4188019;28;20963;-82
2023/06/12 04:54:58;;;;;;;9.83;8.10;;;;;;;19.00;74.04;98047.22;4201917;28;20721;-82
2023/06/12 04:57:02;;;;;;;9.70;7.77;;;;;;;19.06;75.27;98035.19;4190915;28;20638;-82
2023/06/12 04:59:05;;;;;;;9.13;8.13;;;;;;;19.10;74.09;98041.84;4189070;28;21197;-83
2023/06/12 05:01:10;;;;;;;7.93;7.13;;;;;;;19.14;74.20;98037.88;4202211;28;21225;-79
2023/06/12 05:03:16;;;;;;;8.77;7.33;;;;;;;19.20;73.73;98047.81;4205361;28;20673;-79
2023/06/12 05:05:20;;;;;;;8.60;7.70;;;;;;;19.26;75.11;98055.13;4190491;28;20660;-79
2023/06/12 05:07:24;;;;;;;9.57;8.57;;;;;;;19.32;75.19;98057.97;4188897;28;20643;-78
2023/06/12 05:09:33;;;;;;;11.70;8.63;;;;;;;19.33;73.21;98053.50;4206559;28;20638;-81
2023/06/12 05:11:36;;;;;;;8.77;7.70;;;;;;;19.37;74.09;98061.78;4194907;28;20692;-80
2023/06/12 05:13:41;;;;;;;9.17;8.27;;;;;;;19.41;74.84;98065.78;4188736;28;20657;-80
2023/06/12 05:15:44;;;;;;;9.23;8.20;;;;;;;19.48;73.98;98069.47;4184851;28;20686;-83
2023/06/12 05:17:48;;;;;;;9.80;7.90;;;;;;;19.58;74.78;98069.31;4184467;28;21282;-84
2023/06/12 05:19:51;;;;;;;9.27;7.80;;;;;;;19.66;74.80;98072.78;4195475;28;21072;-84
2023/06/12 05:21:55;;;;;;;8.63;7.83;;;;;;;19.79;72.99;98075.00;4191777;28;20639;-83
2023/06/12 05:23:59;;;;;;;9.40;8.27;;;;;;;19.88;74.62;98077.53;4187163;28;21218;-83
2023/06/12 05:26:04;;;;;;;9.70;8.67;;;;;;;19.92;72.69;98076.19;4192130;28;21228;-83
2023/06/12 05:28:07;;;;;;;8.57;7.77;;;;;;;20.08;72.72;98077.06;4177669;28;20673;-84
2023/06/12 05:30:12;;;;;;;10.00;8.63;;;;;;;20.24;72.12;98084.22;4197065;28;20667;-84
2023/06/12 05:32:16;;;;;;;8.40;7.50;;;;;;;20.24;72.57;98076.28;4178538;28;20640;-84
2023/06/12 05:34:19;;;;;;;9.43;7.87;;;;;;;20.40;70.82;98077.94;4198640;28;20643;-82
2023/06/12 05:36:22;;;;;;;8.10;7.13;;;;;;;20.60;71.26;98081.09;4196020;28;20651;-83
2023/06/12 05:38:26;;;;;;;8.80;6.90;;;;;;;20.80;71.78;98078.75;4206372;28;20695;-83
2023/06/12 05:40:29;;;;;;;7.97;7.17;;;;;;;21.14;71.53;98075.84;4202856;28;20625;-82
2023/06/12 05:42:34;;;;;;;7.57;6.87;;;;;;;21.35;69.87;98079.63;4188167;28;20736;-82
2023/06/12 05:44:37;;;;;;;8.33;7.53;;;;;;;21.68;69.58;98075.84;4200332;28;20634;-82
2023/06/12 05:46:40;;;;;;;9.53;7.97;;;;;;;21.95;68.28;98084.16;4186644;28;20770;-82
2023/06/12 05:48:45;;;;;;;7.97;7.17;;;;;;;22.23;68.86;98084.31;4194885;28;21250;-82
2023/06/12 05:50:48;;;;;;;8.70;7.03;;;;;;;22.61;67.79;98087.88;4197827;28;20634;-82
2023/06/12 05:52:52;;;;;;;8.17;7.37;;;;;;;22.89;67.81;98092.44;4199036;28;20626;-82
2023/06/12 05:54:56;;;;;;;7.70;7.00;;;;;;;23.21;65.78;98082.31;4189635;28;20718;-83
2023/06/12 05:57:00;;;;;;;9.07;7.60;;;;;;;23.41;65.26;98092.25;4188496;28;20968;-83
2023/06/12 05:59:05;;;;;;;8.07;6.87;;;;;;;23.67;65.41;98089.97;4188380;28;20990;-82
2023/06/12 06:01:11;;;;;;;7.40;6.70;;;;;;;23.84;64.35;98089.53;4200071;28;20630;-83
2023/06/12 06:03:33;;;;;;;7.97;7.17;;;;;;;24.04;63.74;98093.28;4197957;28;20626;-82
2023/06/12 06:05:38;;;;;;;11.70;7.33;;;;;;;24.10;63.02;98083.69;4196139;28;21107;-82
2023/06/12 06:07:49;;;;;;;7.80;6.87;;;;;;;24.24;63.15;98089.00;4194517;28;20630;-82
2023/06/12 06:09:52;;;;;;;7.07;6.37;;;;;;;24.57;63.19;98096.34;4193656;28;20629;-83
2023/06/12 06:11:55;;;;;;;7.20;6.50;;;;;;;24.92;63.23;98106.09;4184716;28;20634;-82
2023/06/12 06:13:59;;;;;;;8.27;7.47;;;;;;;25.20;61.75;98100.59;4197879;28;20625;-82
2023/06/12 06:16:04;;;;;;;7.30;6.47;;;;;;;25.49;62.80;98102.22;4204617;28;20698;-83
2023/06/12 06:18:12;;;;;;;8.57;7.77;;;;;;;25.74;61.00;98088.16;4189828;28;20659;-83
2023/06/12 06:20:17;;;;;;;8.80;7.17;;;;;;;25.94;61.01;98102.47;4202802;28;20618;-83
2023/06/12 06:22:22;;;;;;;8.90;6.73;;;;;;;26.25;61.17;98106.25;4206101;28;20715;-83
2023/06/12 06:24:25;;;;;;;7.97;7.27;;;;;;;26.46;61.44;98104.31;4209691;28;21443;-83
2023/06/12 06:26:31;;;;;;;7.43;6.43;;;;;;;26.62;59.57;98111.94;4210571;28;20691;-82
2023/06/12 06:28:35;;;;;;;7.10;6.40;;;;;;;26.73;58.56;98103.28;4183056;28;20628;-83
2023/06/12 06:30:38;;;;;;;8.30;7.50;;;;;;;26.81;59.18;98106.59;4202626;28;21071;-83
2023/06/12 06:32:43;;;;;;;6.97;6.37;;;;;;;26.85;58.67;98105.16;4185965;28;21020;-83
2023/06/12 06:34:46;;;;;;;7.20;6.50;;;;;;;26.86;58.83;98101.44;4202707;28;21195;-83
2023/06/12 06:36:49;;;;;;;7.67;6.87;;;;;;;26.85;58.21;98107.00;4188211;28;20701;-83
2023/06/12 06:38:53;;;;;;;9.13;7.40;;;;;;;26.90;58.97;98100.03;4203225;28;20680;-83
2023/06/12 06:40:57;;;;;;;7.17;6.47;;;;;;;27.15;57.90;98099.22;4199789;28;20624;-83
2023/06/12 06:43:02;;;;;;;7.23;6.57;;;;;;;27.34;58.55;98109.06;4184721;28;20679;-83
2023/06/12 06:45:17;;;;;;;8.07;7.37;;;;;;;27.36;57.60;98108.88;4198422;28;20778;-83
2023/06/12 06:47:20;;;;;;;7.80;7.00;;;;;;;27.53;57.93;98109.06;4190856;28;20686;-83
2023/06/12 06:49:26;;;;;;;8.83;7.67;;;;;;;27.76;57.80;98119.34;4201966;28;21083;-83
2023/06/12 06:51:30;;;;;;;7.30;6.60;;;;;;;27.77;57.64;98110.22;4207184;28;20634;-82
2023/06/12 06:53:34;;;;;;;7.07;6.43;;;;;;;27.87;56.73;98115.97;4200361;28;20639;-82
2023/06/12 06:55:42;;;;;;;8.37;7.57;;;;;;;28.03;58.54;98121.72;4189841;28;21229;-83
2023/06/12 06:57:50;;;;;;;7.90;7.10;;;;;;;28.11;57.20;98118.81;4190783;28;20655;-83
2023/06/12 06:59:55;;;;;;;7.83;7.00;;;;;;;27.87;56.60;98108.75;4191379;28;20664;-83
2023/06/12 07:01:59;;;;;;;8.10;7.40;;;;;;;27.92;58.06;98116.16;4198847;28;21202;-82
2023/06/12 07:04:02;;;;;;;7.13;6.53;;;;;;;27.98;58.61;98112.63;4200936;28;20622;-82
2023/06/12 07:06:07;;;;;;;8.40;7.17;;;;;;;28.28;58.47;98125.31;4202717;28;20674;-83
2023/06/12 07:08:11;;;;;;;10.30;7.60;;;;;;;28.09;56.94;98105.59;4181756;28;20634;-82
2023/06/12 07:10:16;;;;;;;7.90;7.10;;;;;;;28.09;56.49;98105.59;4207475;28;20709;-83
2023/06/12 07:12:20;;;;;;;7.93;7.23;;;;;;;28.32;56.14;98113.13;4181447;28;20639;-83
2023/06/12 07:14:23;;;;;;;8.33;7.53;;;;;;;28.51;56.81;98111.16;4187585;28;21009;-83
2023/06/12 07:16:28;;;;;;;8.23;7.40;;;;;;;28.76;55.44;98117.44;4172037;28;20644;-83
2023/06/12 07:18:31;;;;;;;8.53;7.73;;;;;;;28.53;56.51;98113.63;4179777;28;20628;-82
2023/06/12 07:20:35;;;;;;;6.87;6.07;;;;;;;28.37;55.91;98106.09;4196990;28;20638;-81
2023/06/12 07:22:40;;;;;;;7.60;6.80;;;;;;;28.38;55.38;98098.84;4211952;28;21907;-82
2023/06/12 07:24:43;;;;;;;7.77;6.97;;;;;;;28.37;56.62;98102.56;4198519;28;21258;-81
2023/06/12 07:26:49;;;;;;;7.67;6.97;;;;;;;28.56;55.95;98102.44;4190153;28;20663;-81
2023/06/12 07:28:54;;;;;;;7.90;7.20;;;;;;;28.68;57.23;98100.75;4183372;28;20623;-81
2023/06/12 07:31:02;;;;;;;8.13;7.33;;;;;;;28.94;55.61;98103.22;4187123;28;20645;-81
2023/06/12 07:33:06;;;;;;;7.40;6.70;;;;;;;29.09;55.50;98102.69;4176151;28;20713;-81
2023/06/12 07:35:09;;;;;;;8.27;7.50;;;;;;;29.11;54.85;98102.47;4167593;28;21165;-81
2023/06/12 07:37:13;;;;;;;8.13;7.43;;;;;;;28.76;55.29;98098.63;4190385;28;21044;-81
2023/06/12 07:39:18;;;;;;;7.67;6.97;;;;;;;28.79;56.69;98110.78;4175829;28;21220;-82
2023/06/12 07:41:22;;;;;;;8.13;7.33;;;;;;;28.86;55.65;98103.50;4192018;28;21246;-82
2023/06/12 07:43:26;;;;;;;7.50;6.80;;;;;;;28.86;54.98;98098.94;4195749;28;20732;-82
2023/06/12 07:45:30;;;;;;;7.77;7.07;;;;;;;28.82;54.47;98107.66;4187313;28;20639;-81
2023/06/12 07:47:34;;;;;;;7.50;6.80;;;;;;;28.89;54.37;98098.50;4172570;28;20657;-81
2023/06/12 07:49:37;;;;;;;7.27;6.63;;;;;;;28.86;55.06;98095.44;4199325;28;20726;-81
2023/06/12 07:51:40;;;;;;;7.50;6.40;;;;;;;28.85;54.24;98096.47;4183948;28;20641;-81
2023/06/12 07:53:43;;;;;;;9.13;8.30;;;;;;;28.83;54.63;98098.56;4179519;28;20638;-81
2023/06/12 07:55:53;;;;;;;7.90;7.20;;;;;;;28.54;55.32;98089.22;4182174;28;20662;-81
2023/06/12 07:58:01;;;;;;;8.00;7.20;;;;;;;28.61;55.83;98086.50;4178507;28;21932;-81
2023/06/12 08:00:07;;;;;;;8.50;7.70;;;;;;;28.48;54.73;98082.03;4179871;28;20634;-81
2023/06/12 08:02:21;;;;;;;8.40;7.23;;;;;;;28.44;56.17;98082.69;4195979;28;20631;-81
2023/06/12 08:04:25;;;;;;;10.40;8.93;;;;;;;28.77;55.69;98086.00;4193630;28;20639;-81
2023/06/12 08:06:29;;;;;;;8.73;7.83;;;;;;;29.07;54.70;98083.25;4180565;28;20663;-81
2023/06/12 08:08:40;;;;;;;8.13;6.90;;;;;;;29.27;54.95;98083.94;4195318;28;20642;-82
2023/06/12 08:10:44;;;;;;;8.13;7.43;;;;;;;29.46;55.02;98095.56;4198542;28;21226;-81
2023/06/12 08:12:49;;;;;;;8.00;7.20;;;;;;;29.42;54.82;98079.03;4189061;28;20637;-81
2023/06/12 08:14:55;;;;;;;7.50;6.43;;;;;;;29.62;53.41;98085.84;4186759;28;20788;-81
2023/06/12 08:16:59;;;;;;;7.50;6.80;;;;;;;29.66;53.48;98076.25;4196979;28;20688;-82
2023/06/12 08:19:03;;;;;;;7.10;6.47;;;;;;;29.64;52.23;98069.50;4173444;28;20640;-81
2023/06/12 08:21:09;;;;;;;7.10;6.40;;;;;;;29.55;52.37;98074.31;4175357;28;20637;-82
2023/06/12 08:23:13;;;;;;;6.53;5.90;;;;;;;29.53;51.97;98076.44;4199663;28;20740;-81
2023/06/12 08:25:17;;;;;;;6.93;6.23;;;;;;;29.49;51.92;98071.72;4198918;28;20728;-82
2023/06/12 08:27:22;;;;;;;7.27;6.57;;;;;;;29.55;52.17;98065.44;4191301;28;20655;-82
2023/06/12 08:29:27;;;;;;;7.27;6.57;;;;;;;29.78;51.68;98060.22;4190678;28;20640;-82
2023/06/12 08:31:32;;;;;;;11.50;6.33;;;;;;;29.86;50.87;98070.69;4196441;28;20794;-82
2023/06/12 08:33:35;;;;;;;7.57;6.87;;;;;;;29.56;50.60;98059.03;4201729;28;20654;-81
2023/06/12 08:35:40;;;;;;;6.53;5.90;;;;;;;29.50;51.56;98052.66;4205095;28;20634;-82
2023/06/12 08:37:44;;;;;;;7.43;6.70;;;;;;;29.76;50.93;98060.44;4191791;28;21201;-81
2023/06/12 08:39:47;;;;;;;6.90;6.30;;;;;;;29.66;49.53;98056.63;4165171;28;20696;-82
2023/06/12 08:41:59;;;;;;;6.50;5.90;;;;;;;29.66;50.29;98056.63;4179707;28;20632;-82
2023/06/12 08:44:02;;;;;;;6.43;5.83;;;;;;;29.27;49.16;98046.28;4187483;28;21111;-81
2023/06/12 08:46:18;;;;;;;6.27;5.77;;;;;;;29.45;49.77;98051.69;4196526;28;20646;-81
2023/06/12 08:48:26;;;;;;;6.30;5.70;;;;;;;29.50;51.04;98058.06;4196676;28;20657;-82
2023/06/12 08:50:30;;;;;;;6.93;6.23;;;;;;;29.23;49.20;98046.94;4198727;28;20993;-82
2023/06/12 08:52:34;;;;;;;6.23;5.70;;;;;;;29.05;50.29;98049.59;4195866;28;21174;-82
2023/06/12 08:54:38;;;;;;;6.83;6.07;;;;;;;29.01;50.28;98049.19;4195253;28;20627;-81
2023/06/12 08:56:42;;;;;;;6.53;5.73;;;;;;;29.01;50.06;98048.38;4200538;28;20635;-81
2023/06/12 08:58:46;;;;;;;6.93;6.20;;;;;;;29.20;50.51;98050.91;4200020;28;20625;-82
2023/06/12 09:00:49;;;;;;;6.17;5.57;;;;;;;29.50;49.28;98052.66;4194443;28;20680;-82
2023/06/12 09:02:54;;;;;;;6.23;5.63;;;;;;;29.29;49.33;98046.91;4185594;28;21169;-82
2023/06/12 09:05:02;;;;;;;6.60;6.00;;;;;;;29.13;48.32;98049.31;4200605;28;20731;-81
2023/06/12 09:07:06;;;;;;;6.40;5.80;;;;;;;29.16;49.28;98044.31;4187162;28;20654;-81
2023/06/12 09:09:11;;;;;;;6.23;5.67;;;;;;;29.15;48.94;98042.69;4189755;28;20688;-81
2023/06/12 09:11:16;;;;;;;6.70;5.93;;;;;;;29.16;50.35;98036.25;4176573;28;21000;-82
2023/06/12 09:13:22;;;;;;;6.53;5.93;;;;;;;29.38;49.61;98056.31;4179107;28;21076;-81
2023/06/12 09:15:28;;;;;;;7.90;6.20;;;;;;;29.36;48.89;98062.97;4177639;28;21234;-81
2023/06/12 09:17:33;;;;;;;6.93;6.30;;;;;;;29.27;49.01;98054.34;4182183;28;20625;-81
2023/06/12 09:19:44;;;;;;;7.00;6.30;;;;;;;29.10;50.69;98045.19;4186745;28;20683;-81
2023/06/12 09:21:48;;;;;;;7.70;7.03;;;;;;;28.89;50.64;98038.59;4197100;28;20674;-82
2023/06/12 09:23:59;;;;;;;6.63;6.03;;;;;;;28.95;50.66;98033.16;4194322;28;21290;-82
2023/06/12 09:26:11;;;;;;;7.27;6.60;;;;;;;28.77;50.65;98037.66;4201357;28;20712;-83
2023/06/12 09:28:23;;;;;;;7.30;6.70;;;;;;;28.73;51.13;98037.28;4197373;28;21208;-81
2023/06/12 09:30:29;;;;;;;6.33;5.73;;;;;;;28.68;50.90;98041.66;4195654;28;20753;-81
2023/06/12 09:32:32;;;;;;;7.20;6.50;;;;;;;28.69;50.75;98033.38;4203061;28;20630;-82
2023/06/12 09:34:36;;;;;;;7.20;6.50;;;;;;;28.89;50.39;98038.59;4202442;28;20627;-81
2023/06/12 09:36:43;;;;;;;7.60;6.50;;;;;;;28.44;50.55;98033.56;4197437;28;21209;-81
2023/06/12 09:38:48;;;;;;;6.70;6.10;;;;;;;28.08;50.30;98033.31;4197202;28;20649;-81
2023/06/12 09:40:57;;;;;;;7.43;6.73;;;;;;;27.80;50.57;98032.88;4198936;28;20623;-81
2023/06/12 09:43:05;;;;;;;7.53;6.83;;;;;;;27.32;51.12;98020.03;4189631;28;20635;-81
2023/06/12 09:45:14;;;;;;;7.37;6.67;;;;;;;27.47;51.94;98017.91;4194159;28;20633;-80
2023/06/12 09:47:18;;;;;;;7.30;6.27;;;;;;;27.59;50.56;98008.22;4196672;28;20637;-80
2023/06/12 09:49:23;;;;;;;7.53;6.53;;;;;;;27.72;50.52;98022.34;4183498;28;20635;-81